Time;durP1;ratioP1;P1;durP2;ratioP2;P2;SDS_P1;SDS_P2;PMS_P1;PMS_P2;Temp;Humidity;BMP_temperature;BMP_pressure;BME280_temperature;BME280_humidity;BME280_pressure;Samples;Min_cycle;Max_cycle;Signal;HPM_P1;HPM_P2
2022/02/21 00:00:53;;;;;;;3.90;0.90;;;;;;;7.23;74.77;95496.13;2070924;28;20209;-72
2022/02/21 00:01:55;;;;;;;4.65;1.15;;;;;;;7.25;74.72;95497.69;2071151;28;20211;-71
2022/02/21 00:02:56;;;;;;;9.75;0.90;;;;;;;7.27;74.02;95498.41;2070658;28;20206;-71
2022/02/21 00:03:58;;;;;;;3.00;0.90;;;;;;;7.27;74.07;95492.34;2062662;28;20204;-71
2022/02/21 00:05:00;;;;;;;1.70;0.93;;;;;;;7.31;74.09;95489.41;2070298;28;20313;-71
2022/02/21 00:06:01;;;;;;;5.20;1.05;;;;;;;7.30;74.15;95477.31;2072124;28;20218;-72
2022/02/21 00:07:03;;;;;;;3.72;0.80;;;;;;;7.12;74.37;95476.06;2063982;28;20306;-70
2022/02/21 00:08:05;;;;;;;5.65;0.82;;;;;;;7.26;74.10;95478.50;2071043;28;20299;-71
2022/02/21 00:09:07;;;;;;;3.70;0.70;;;;;;;7.32;74.16;95487.63;2072835;28;20514;-72
2022/02/21 00:10:10;;;;;;;5.28;0.90;;;;;;;7.30;74.00;95466.09;2071113;28;20228;-72
2022/02/21 00:11:12;;;;;;;4.10;0.95;;;;;;;7.35;73.73;95469.19;2071524;28;20205;-71
2022/02/21 00:12:14;;;;;;;2.75;0.85;;;;;;;7.31;73.90;95479.00;2070710;28;20212;-70
2022/02/21 00:13:16;;;;;;;3.30;1.08;;;;;;;7.16;74.04;95435.03;2072592;28;20712;-71
2022/02/21 00:14:19;;;;;;;4.03;0.88;;;;;;;7.35;74.02;95469.19;2070864;28;20211;-71
2022/02/21 00:15:23;;;;;;;2.55;0.80;;;;;;;7.33;73.98;95464.09;2072555;28;20195;-73
2022/02/21 00:16:25;;;;;;;2.67;0.80;;;;;;;7.32;74.21;95441.56;2072110;28;20252;-72
2022/02/21 00:17:27;;;;;;;2.00;0.82;;;;;;;7.30;74.21;95432.22;2071801;28;20201;-73
2022/02/21 00:18:28;;;;;;;3.72;0.80;;;;;;;7.20;74.95;95431.25;2071375;28;20715;-71
2022/02/21 00:19:30;;;;;;;1.58;0.65;;;;;;;7.29;74.74;95460.06;2066839;28;20222;-73
2022/02/21 00:20:32;;;;;;;1.23;0.68;;;;;;;7.33;74.46;95445.84;2068582;28;20205;-70
2022/02/21 00:21:34;;;;;;;2.45;0.70;;;;;;;7.28;75.32;95450.56;2069914;28;20700;-74
2022/02/21 00:22:35;;;;;;;7.50;1.25;;;;;;;7.22;75.95;95445.81;2070661;28;20202;-74
2022/02/21 00:23:37;;;;;;;2.22;0.80;;;;;;;7.21;75.47;95427.69;2071784;28;20208;-72
2022/02/21 00:24:38;;;;;;;1.13;0.65;;;;;;;7.12;76.04;95450.88;2071145;28;20228;-73
2022/02/21 00:25:40;;;;;;;3.15;0.75;;;;;;;7.15;76.36;95444.59;2070982;28;20202;-74
2022/02/21 00:26:41;;;;;;;3.00;0.70;;;;;;;7.10;77.43;95441.50;2069933;28;20213;-74
2022/02/21 00:27:43;;;;;;;2.00;0.85;;;;;;;7.01;77.25;95439.56;2070589;28;20709;-73
2022/02/21 00:28:45;;;;;;;4.28;0.80;;;;;;;7.05;77.61;95439.22;2071702;28;20196;-73
2022/02/21 00:29:48;;;;;;;3.88;1.02;;;;;;;7.07;76.95;95439.94;2072257;28;20222;-73
2022/02/21 00:30:50;;;;;;;1.85;0.85;;;;;;;7.07;77.61;95437.34;2072657;28;20198;-73
2022/02/21 00:31:51;;;;;;;0.88;0.57;;;;;;;6.90;77.41;95401.31;2072191;28;20205;-73
2022/02/21 00:32:53;;;;;;;5.90;0.90;;;;;;;7.02;77.49;95433.44;2069601;28;20221;-74
2022/02/21 00:33:54;;;;;;;2.35;1.10;;;;;;;6.87;77.98;95415.38;2070924;28;20197;-73
2022/02/21 00:34:56;;;;;;;1.35;0.70;;;;;;;6.97;77.63;95422.53;2071460;28;20229;-74
2022/02/21 00:35:57;;;;;;;1.75;0.70;;;;;;;7.02;78.09;95438.66;2072528;28;20211;-74
2022/02/21 00:36:59;;;;;;;4.75;1.00;;;;;;;6.99;78.48;95444.88;2072378;28;20230;-75
2022/02/21 00:38:01;;;;;;;1.98;0.70;;;;;;;6.95;78.84;95432.22;2071995;28;20716;-76
2022/02/21 00:39:03;;;;;;;1.60;0.73;;;;;;;6.87;78.89;95441.41;2071422;28;20210;-74
2022/02/21 00:40:05;;;;;;;4.07;1.10;;;;;;;6.84;80.04;95431.22;2070833;28;20227;-75
2022/02/21 00:41:06;;;;;;;3.85;0.90;;;;;;;6.78;79.44;95415.22;2069905;28;20195;-74
2022/02/21 00:42:08;;;;;;;2.75;0.90;;;;;;;6.85;79.87;95438.06;2070454;28;20202;-74
2022/02/21 00:43:10;;;;;;;3.95;0.90;;;;;;;6.93;78.12;95432.31;2072427;28;20526;-74
2022/02/21 00:44:12;;;;;;;4.80;0.80;;;;;;;6.96;77.75;95415.63;2071871;28;20258;-75
2022/02/21 00:45:14;;;;;;;0.90;0.60;;;;;;;7.10;77.12;95431.91;2072219;28;20201;-75
2022/02/21 00:46:15;;;;;;;2.88;0.90;;;;;;;7.10;77.71;95424.13;2075357;28;20209;-76
2022/02/21 00:47:17;;;;;;;2.42;0.90;;;;;;;6.93;78.74;95408.91;2072898;28;20559;-74
2022/02/21 00:48:18;;;;;;;3.72;0.80;;;;;;;6.89;78.21;95400.47;2070372;28;20201;-76
2022/02/21 00:49:20;;;;;;;6.97;1.30;;;;;;;6.99;77.87;95389.41;2070893;28;20199;-75
2022/02/21 00:50:21;;;;;;;3.80;0.88;;;;;;;7.23;76.37;95395.41;2072267;28;20210;-76
2022/02/21 00:51:23;;;;;;;2.15;1.10;;;;;;;7.18;77.22;95407.94;2072326;28;20305;-76
2022/02/21 00:52:24;;;;;;;3.10;0.80;;;;;;;7.09;78.20;95377.34;2071830;28;20439;-74
2022/02/21 00:53:26;;;;;;;1.85;0.70;;;;;;;7.06;78.19;95377.59;2071735;28;20198;-76
2022/02/21 00:54:28;;;;;;;6.93;1.33;;;;;;;6.98;78.26;95372.97;2071066;28;20202;-77
2022/02/21 00:55:30;;;;;;;1.55;0.60;;;;;;;7.02;77.35;95376.16;2072344;28;20198;-76
2022/02/21 00:56:31;;;;;;;4.38;0.85;;;;;;;6.83;78.41;95338.47;2070125;28;20206;-76
2022/02/21 00:57:33;;;;;;;1.52;0.88;;;;;;;6.96;78.50;95364.44;2071644;28;20653;-77
2022/02/21 00:58:35;;;;;;;3.85;0.80;;;;;;;7.00;79.12;95380.63;2071170;28;20199;-75
2022/02/21 00:59:36;;;;;;;2.35;0.80;;;;;;;6.87;78.76;95357.28;2069908;28;20261;-76
2022/02/21 01:00:38;;;;;;;5.45;0.93;;;;;;;6.96;79.04;95376.59;2072393;28;20195;-77
2022/02/21 01:01:39;;;;;;;4.13;1.00;;;;;;;6.91;78.87;95359.53;2068962;28;20205;-76
2022/02/21 01:02:41;;;;;;;5.40;0.77;;;;;;;6.90;79.08;95373.53;2071595;28;20281;-78
2022/02/21 01:03:43;;;;;;;5.72;0.98;;;;;;;6.86;79.26;95346.06;2071825;28;20686;-77
2022/02/21 01:04:44;;;;;;;1.60;0.80;;;;;;;6.92;79.13;95350.81;2074807;28;20231;-77
2022/02/21 01:05:46;;;;;;;1.20;0.85;;;;;;;6.81;79.44;95348.16;2076098;28;20383;-77
2022/02/21 01:06:47;;;;;;;2.05;0.70;;;;;;;6.73;80.05;95340.09;2076694;28;20384;-78
2022/02/21 01:07:49;;;;;;;1.25;0.75;;;;;;;6.78;80.73;95343.16;2075658;28;20199;-76
2022/02/21 01:08:51;;;;;;;1.00;0.70;;;;;;;6.81;80.50;95357.75;2071297;28;20202;-76
2022/02/21 01:09:52;;;;;;;8.63;0.80;;;;;;;6.79;80.44;95349.22;2068343;28;20229;-77
2022/02/21 01:10:54;;;;;;;6.93;1.00;;;;;;;6.85;79.82;95347.00;2071213;28;20199;-75
2022/02/21 01:11:56;;;;;;;2.30;0.73;;;;;;;6.75;79.69;95314.78;2071616;28;20206;-76
2022/02/21 01:12:57;;;;;;;6.15;0.73;;;;;;;6.74;79.86;95336.53;2070497;28;20203;-77
2022/02/21 01:14:00;;;;;;;3.67;0.70;;;;;;;6.84;79.84;95342.75;2071568;28;20208;-77
2022/02/21 01:15:03;;;;;;;2.15;0.75;;;;;;;6.73;80.78;95333.09;2071278;28;20240;-77
2022/02/21 01:16:05;;;;;;;4.45;1.17;;;;;;;6.80;80.02;95310.09;2070553;28;20562;-76
2022/02/21 01:17:06;;;;;;;3.75;1.17;;;;;;;6.80;80.20;95332.66;2070813;28;20190;-76
2022/02/21 01:18:08;;;;;;;1.98;0.80;;;;;;;6.79;80.03;95318.81;2071569;28;20565;-77
2022/02/21 01:19:09;;;;;;;2.83;0.93;;;;;;;6.77;80.44;95325.91;2070949;28;20214;-76
2022/02/21 01:20:12;;;;;;;2.30;0.70;;;;;;;6.62;80.61;95298.41;2070446;28;20206;-76
2022/02/21 01:21:14;;;;;;;1.75;0.80;;;;;;;6.62;80.84;95293.22;2071803;28;20202;-74
2022/02/21 01:22:16;;;;;;;4.93;0.90;;;;;;;6.77;80.69;95312.91;2071190;28;20678;-76
2022/02/21 01:23:17;;;;;;;1.00;0.60;;;;;;;6.80;80.19;95297.06;2071317;28;20197;-78
2022/02/21 01:24:19;;;;;;;4.53;1.13;;;;;;;6.76;80.16;95313.00;2071357;28;20225;-77
2022/02/21 01:25:20;;;;;;;4.43;1.00;;;;;;;6.66;80.75;95297.25;2072125;28;20344;-76
2022/02/21 01:26:22;;;;;;;5.18;0.80;;;;;;;6.73;81.30;95311.47;2071163;28;20562;-75
2022/02/21 01:27:24;;;;;;;3.13;0.95;;;;;;;6.68;81.49;95313.56;2063412;28;20194;-74
2022/02/21 01:28:25;;;;;;;3.25;1.08;;;;;;;6.57;81.41;95292.75;2063417;28;20203;-76
2022/02/21 01:29:27;;;;;;;1.85;0.75;;;;;;;6.67;81.42;95298.91;2070943;28;20194;-75
2022/02/21 01:30:29;;;;;;;4.32;1.02;;;;;;;6.69;81.08;95278.81;2070789;28;20213;-75
2022/02/21 01:31:30;;;;;;;0.80;0.70;;;;;;;6.59;81.19;95270.03;2070666;28;20205;-75
2022/02/21 01:32:32;;;;;;;1.63;0.80;;;;;;;6.75;80.91;95286.16;2071417;28;20205;-76
2022/02/21 01:33:34;;;;;;;5.13;0.90;;;;;;;6.71;80.97;95285.56;2068221;28;20662;-76
2022/02/21 01:34:36;;;;;;;4.55;0.90;;;;;;;6.71;81.13;95271.72;2071499;28;20313;-73
2022/02/21 01:35:37;;;;;;;1.95;0.82;;;;;;;6.61;81.47;95250.78;2072218;28;20193;-74
2022/02/21 01:36:40;;;;;;;3.22;0.70;;;;;;;6.65;81.55;95259.19;2071257;28;20681;-79
2022/02/21 01:37:41;;;;;;;3.13;1.20;;;;;;;6.64;81.93;95260.09;2071237;28;20395;-75
2022/02/21 01:38:43;;;;;;;7.68;0.90;;;;;;;6.48;81.95;95234.41;2071449;28;20657;-75
2022/02/21 01:39:45;;;;;;;4.65;0.90;;;;;;;6.65;81.90;95244.41;2071195;28;20234;-74
2022/02/21 01:40:47;;;;;;;1.70;0.70;;;;;;;6.52;81.62;95223.66;2068929;28;20290;-75
2022/02/21 01:41:48;;;;;;;2.17;0.90;;;;;;;6.61;81.85;95266.38;2069959;28;20570;-75
2022/02/21 01:42:50;;;;;;;2.58;0.80;;;;;;;6.71;81.46;95243.13;2070635;28;20201;-75
2022/02/21 01:44:11;;;;;;;1.52;0.60;;;;;;;6.63;81.75;95216.84;2071374;28;20545;-75
2022/02/21 01:45:12;;;;;;;4.50;1.00;;;;;;;6.60;82.61;95241.28;2071339;28;20226;-76
2022/02/21 01:46:15;;;;;;;1.88;0.85;;;;;;;6.61;82.14;95245.56;2066992;28;20212;-75
2022/02/21 01:47:22;;;;;;;3.75;0.95;;;;;;;6.58;82.68;95231.97;2068082;28;20206;-74
2022/02/21 01:48:23;;;;;;;9.70;0.90;;;;;;;6.57;82.44;95236.34;2071760;28;20209;-73
2022/02/21 01:49:25;;;;;;;2.97;1.00;;;;;;;6.60;82.54;95243.06;2070376;28;20193;-74
2022/02/21 01:50:26;;;;;;;4.13;0.60;;;;;;;6.61;82.14;95245.56;2071973;28;20194;-73
2022/02/21 01:51:28;;;;;;;2.60;0.57;;;;;;;6.62;81.96;95241.19;2069945;28;20205;-72
2022/02/21 01:52:30;;;;;;;2.65;1.00;;;;;;;6.65;82.13;95243.56;2071863;28;20502;-73
2022/02/21 01:53:32;;;;;;;2.30;0.70;;;;;;;6.54;81.61;95219.16;2071693;28;20210;-74
2022/02/21 01:54:33;;;;;;;3.00;0.70;;;;;;;6.58;81.26;95206.75;2076734;28;20228;-74
2022/02/21 01:55:36;;;;;;;2.03;0.60;;;;;;;6.73;80.85;95221.22;2076887;28;20197;-74
2022/02/21 01:56:38;;;;;;;3.20;0.70;;;;;;;6.81;80.02;95217.22;2071865;28;20399;-75
2022/02/21 01:57:42;;;;;;;1.38;0.70;;;;;;;6.77;80.63;95208.81;2071154;28;20201;-74
2022/02/21 01:58:43;;;;;;;5.95;0.95;;;;;;;6.75;80.74;95197.69;2071470;28;20202;-74
2022/02/21 01:59:45;;;;;;;3.25;0.80;;;;;;;6.77;80.52;95216.63;2070697;28;20229;-74
2022/02/21 02:00:46;;;;;;;0.90;0.60;;;;;;;6.63;80.58;95177.81;2071304;28;20205;-74
2022/02/21 02:01:48;;;;;;;2.25;0.60;;;;;;;6.72;80.79;95206.56;2071551;28;20198;-74
2022/02/21 02:02:49;;;;;;;2.67;0.80;;;;;;;6.77;80.33;95193.22;2071404;28;20202;-72
2022/02/21 02:03:51;;;;;;;4.00;0.60;;;;;;;6.79;79.78;95173.09;2071429;28;20194;-75
2022/02/21 02:04:53;;;;;;;1.67;0.85;;;;;;;6.83;79.89;95169.31;2070915;28;20226;-73
2022/02/21 02:05:54;;;;;;;2.55;0.60;;;;;;;6.78;79.87;95166.22;2071823;28;20209;-74
2022/02/21 02:06:56;;;;;;;3.25;0.70;;;;;;;6.80;79.93;95159.16;2071707;28;20202;-75
2022/02/21 02:07:58;;;;;;;2.10;0.80;;;;;;;6.76;79.50;95154.28;2071367;28;20220;-73
2022/02/21 02:09:00;;;;;;;2.90;0.80;;;;;;;6.71;79.40;95123.44;2071727;28;20221;-75
2022/02/21 02:10:02;;;;;;;0.70;0.70;;;;;;;6.86;79.21;95148.28;2069571;28;20213;-73
2022/02/21 02:11:03;;;;;;;1.25;0.55;;;;;;;6.85;79.38;95136.19;2071091;28;20696;-74
2022/02/21 02:12:09;;;;;;;3.88;0.70;;;;;;;6.67;79.59;95111.59;2068640;28;20232;-73
2022/02/21 02:13:10;;;;;;;4.80;0.70;;;;;;;6.85;79.10;95107.56;2071207;28;20221;-74
2022/02/21 02:14:45;;;;;;;3.38;0.60;;;;;;;6.87;79.12;95126.50;2070606;28;20624;-73
2022/02/21 02:15:51;;;;;;;0.93;0.60;;;;;;;6.81;79.03;95105.34;2038416;29;20200;-73
2022/02/21 02:16:53;;;;;;;3.58;0.70;;;;;;;6.87;79.26;95108.28;2063612;28;20695;-75
2022/02/21 02:17:54;;;;;;;1.13;0.60;;;;;;;6.96;78.80;95127.56;2070585;28;20197;-72
2022/02/21 02:18:56;;;;;;;0.77;0.55;;;;;;;6.84;79.26;95100.72;2069664;28;20200;-73
2022/02/21 02:19:57;;;;;;;1.13;0.68;;;;;;;6.85;80.17;95110.19;2071141;28;20230;-73
2022/02/21 02:20:59;;;;;;;1.73;0.60;;;;;;;6.73;81.03;95117.16;2075478;28;20201;-74
2022/02/21 02:22:15;;;;;;;1.25;0.60;;;;;;;6.60;82.04;95120.81;2072841;28;20316;-74
2022/02/21 02:23:17;;;;;;;0.70;0.50;;;;;;;6.56;81.77;95082.97;2069739;28;20201;-72
2022/02/21 02:24:19;;;;;;;0.82;0.52;;;;;;;6.75;81.83;95140.47;2069942;28;20554;-74
2022/02/21 02:25:20;;;;;;;1.35;0.70;;;;;;;6.59;82.33;95088.78;2069146;28;20673;-76
2022/02/21 02:26:23;;;;;;;1.10;0.57;;;;;;;6.22;82.49;95049.97;2071781;28;20561;-74
2022/02/21 02:27:25;;;;;;;0.70;0.50;;;;;;;6.62;83.35;95105.91;2071311;28;20667;-75
2022/02/21 02:28:27;;;;;;;1.92;0.60;;;;;;;6.51;84.31;95104.97;2071051;28;20224;-74
2022/02/21 02:29:29;;;;;;;7.72;0.68;;;;;;;6.45;84.67;95102.84;2070401;28;20889;-74
2022/02/21 02:30:31;;;;;;;1.50;0.90;;;;;;;6.38;85.79;95106.03;2071071;28;20239;-73
2022/02/21 02:31:33;;;;;;;1.20;0.60;;;;;;;6.28;85.32;95048.69;2071039;28;20210;-76
2022/02/21 02:32:35;;;;;;;2.75;0.77;;;;;;;6.06;85.80;95045.13;2070220;28;20197;-77
2022/02/21 02:33:37;;;;;;;2.17;0.65;;;;;;;6.06;87.67;95065.91;2069929;28;20206;-75
2022/02/21 02:34:41;;;;;;;0.80;0.60;;;;;;;5.98;88.12;95078.66;2070331;28;20297;-73
2022/02/21 02:35:42;;;;;;;1.00;0.68;;;;;;;5.92;88.40;95056.50;2071478;28;20289;-72
2022/02/21 02:36:46;;;;;;;1.58;0.57;;;;;;;6.01;88.10;95095.78;2070385;28;20194;-73
2022/02/21 02:37:47;;;;;;;2.67;0.70;;;;;;;6.13;87.52;95085.31;2063328;28;20206;-72
2022/02/21 02:38:49;;;;;;;2.55;0.70;;;;;;;6.01;88.52;95075.81;2072113;28;20661;-72
2022/02/21 02:39:51;;;;;;;2.70;0.60;;;;;;;5.90;89.54;95062.75;2062069;28;20226;-71
2022/02/21 02:40:53;;;;;;;2.55;0.90;;;;;;;5.94;89.97;95097.97;2058443;28;20205;-71
2022/02/21 02:41:54;;;;;;;0.80;0.60;;;;;;;5.88;89.30;95062.03;2070781;28;20419;-69
2022/02/21 02:42:56;;;;;;;2.63;0.88;;;;;;;5.88;89.74;95112.25;2070529;28;20194;-68
2022/02/21 02:43:57;;;;;;;1.00;0.70;;;;;;;5.82;89.80;95058.16;2071079;28;20268;-67
2022/02/21 02:44:59;;;;;;;7.38;0.70;;;;;;;5.88;90.45;95108.81;2070905;28;20825;-68
2022/02/21 02:46:00;;;;;;;1.50;0.75;;;;;;;5.85;90.23;95094.28;2074968;28;20657;-68
2022/02/21 02:47:06;;;;;;;1.40;0.50;;;;;;;5.74;91.09;95087.28;2076368;28;20280;-67
2022/02/21 02:48:08;;;;;;;1.23;0.70;;;;;;;5.79;90.82;95093.91;2071160;28;20599;-65
2022/02/21 02:49:10;;;;;;;2.25;0.70;;;;;;;5.79;91.70;95073.94;2070401;28;20490;-66
2022/02/21 02:50:12;;;;;;;1.20;0.60;;;;;;;5.71;90.06;95043.34;2071543;28;20198;-66
2022/02/21 02:51:14;;;;;;;3.60;0.80;;;;;;;5.72;91.08;95062.34;2070431;28;20205;-66
2022/02/21 02:52:15;;;;;;;2.65;0.60;;;;;;;5.70;91.15;95046.91;2071554;28;20197;-65
2022/02/21 02:53:17;;;;;;;1.60;0.80;;;;;;;5.96;89.29;95051.94;2070452;28;20208;-66
2022/02/21 02:54:19;;;;;;;1.00;0.65;;;;;;;5.88;90.48;95068.09;2071040;28;20212;-67
2022/02/21 02:55:21;;;;;;;5.47;1.33;;;;;;;5.85;90.94;95057.09;2062330;28;20206;-67
2022/02/21 02:56:22;;;;;;;0.90;0.65;;;;;;;5.83;91.33;95057.19;2070599;28;20225;-66
2022/02/21 02:57:24;;;;;;;4.85;1.27;;;;;;;5.85;90.81;95041.50;2070183;28;20774;-66
2022/02/21 02:58:25;;;;;;;1.20;0.70;;;;;;;5.90;91.14;95057.56;2070329;28;20206;-66
2022/02/21 02:59:27;;;;;;;4.25;0.70;;;;;;;5.70;91.24;95018.31;2070480;28;20217;-66
2022/02/21 03:00:28;;;;;;;1.83;0.80;;;;;;;5.82;91.57;95047.75;2069209;28;20705;-65
2022/02/21 03:01:30;;;;;;;1.50;0.80;;;;;;;5.79;91.63;95049.75;2069136;28;20328;-66
2022/02/21 03:02:32;;;;;;;1.77;0.60;;;;;;;5.82;92.34;95055.56;2070071;28;20209;-66
2022/02/21 03:03:33;;;;;;;7.40;0.85;;;;;;;5.75;91.80;95047.38;2070377;28;20217;-65
2022/02/21 03:04:35;;;;;;;1.60;0.60;;;;;;;5.79;91.46;95049.75;2069475;28;20494;-65
2022/02/21 03:05:36;;;;;;;1.42;0.73;;;;;;;6.01;90.19;95026.44;2070647;28;20205;-67
2022/02/21 03:06:38;;;;;;;3.75;0.98;;;;;;;5.83;90.96;95044.19;2071438;28;20201;-65
2022/02/21 03:07:39;;;;;;;0.80;0.60;;;;;;;5.87;92.24;95094.16;2069545;28;20208;-64
2022/02/21 03:08:41;;;;;;;2.47;0.70;;;;;;;5.95;90.64;95042.50;2071456;28;20675;-66
2022/02/21 03:09:42;;;;;;;1.50;0.70;;;;;;;5.89;92.26;95043.75;2070095;28;20221;-65
2022/02/21 03:10:44;;;;;;;1.90;0.80;;;;;;;5.82;92.06;95029.56;2071169;28;20201;-65
2022/02/21 03:11:45;;;;;;;6.20;0.70;;;;;;;5.83;92.26;95033.00;2070961;28;20198;-65
2022/02/21 03:12:47;;;;;;;1.80;0.80;;;;;;;5.77;92.06;95028.25;2070824;28;20202;-66
2022/02/21 03:13:48;;;;;;;2.75;0.90;;;;;;;5.84;91.74;95052.81;2071101;28;20232;-64
2022/02/21 03:14:50;;;;;;;2.45;1.02;;;;;;;5.67;91.44;95034.13;2070812;28;20735;-64
2022/02/21 03:15:52;;;;;;;1.05;0.60;;;;;;;5.98;90.30;95075.19;2069294;28;20209;-64
2022/02/21 03:16:53;;;;;;;3.33;0.70;;;;;;;6.02;90.28;95071.44;2070682;28;20210;-65
2022/02/21 03:17:55;;;;;;;2.25;0.63;;;;;;;5.81;90.44;95055.66;2070662;28;20683;-65
2022/02/21 03:18:57;;;;;;;2.30;1.42;;;;;;;5.94;90.89;95098.81;2070425;28;20201;-64
2022/02/21 03:19:59;;;;;;;1.60;0.63;;;;;;;5.86;91.25;95106.34;2069017;28;20229;-64
2022/02/21 03:21:00;;;;;;;3.83;0.93;;;;;;;5.86;92.02;95115.88;2071152;28;20202;-64
2022/02/21 03:22:03;;;;;;;4.10;0.73;;;;;;;5.87;92.11;95120.16;2071171;28;20241;-63
2022/02/21 03:23:05;;;;;;;2.15;0.60;;;;;;;5.91;91.60;95131.97;2070112;28;20560;-62
2022/02/21 03:24:07;;;;;;;0.82;0.60;;;;;;;5.84;93.49;95154.13;2069954;28;20210;-62
2022/02/21 03:25:08;;;;;;;2.08;0.90;;;;;;;5.74;93.88;95162.63;2070075;28;20256;-62
2022/02/21 03:26:10;;;;;;;3.30;0.68;;;;;;;5.74;94.08;95182.56;2070464;28;20205;-61
2022/02/21 03:27:11;;;;;;;0.90;0.60;;;;;;;5.73;94.42;95209.50;2069748;28;20195;-62
2022/02/21 03:28:13;;;;;;;2.13;0.70;;;;;;;5.75;94.69;95250.00;2070574;28;20205;-62
2022/02/21 03:29:14;;;;;;;4.30;0.80;;;;;;;5.59;97.07;95285.78;2069973;28;20212;-62
2022/02/21 03:30:16;;;;;;;3.65;0.75;;;;;;;4.65;97.87;95325.03;2070368;28;20243;-62
2022/02/21 03:31:18;;;;;;;1.98;0.77;;;;;;;3.77;99.39;95351.28;2072503;28;20200;-61
2022/02/21 03:32:19;;;;;;;4.00;0.90;;;;;;;2.79;100.00;95339.88;2071080;28;20200;-62
2022/02/21 03:33:21;;;;;;;1.58;0.52;;;;;;;2.36;100.00;95352.66;2070999;28;20210;-63
2022/02/21 03:34:22;;;;;;;2.58;0.55;;;;;;;2.20;100.00;95347.50;2070764;28;20210;-63
2022/02/21 03:35:24;;;;;;;1.33;0.60;;;;;;;2.13;100.00;95367.66;2067729;28;20577;-63
2022/02/21 03:36:25;;;;;;;2.55;0.50;;;;;;;1.98;99.96;95360.78;2070726;28;20201;-63
2022/02/21 03:37:27;;;;;;;3.10;0.60;;;;;;;2.03;99.91;95388.91;2071258;28;20198;-63
2022/02/21 03:38:28;;;;;;;0.77;0.50;;;;;;;1.83;99.84;95382.25;2071301;28;20202;-63
2022/02/21 03:39:30;;;;;;;1.10;0.50;;;;;;;1.91;100.00;95398.16;2070713;28;20228;-62
2022/02/21 03:40:31;;;;;;;1.17;0.60;;;;;;;1.40;100.00;95340.66;2071995;28;20712;-63
2022/02/21 03:41:35;;;;;;;2.20;0.50;;;;;;;1.76;100.00;95408.41;2071601;28;20210;-63
2022/02/21 03:42:37;;;;;;;2.95;0.50;;;;;;;1.74;100.00;95409.38;2071041;28;20653;-64
2022/02/21 03:43:38;;;;;;;0.80;0.50;;;;;;;1.53;99.84;95404.44;2072366;28;20198;-63
2022/02/21 03:44:41;;;;;;;1.33;0.60;;;;;;;1.67;100.00;95426.94;2073158;28;20228;-63
2022/02/21 03:45:43;;;;;;;1.30;0.55;;;;;;;1.62;99.94;95451.31;2075224;28;20656;-63
2022/02/21 03:46:44;;;;;;;2.60;0.60;;;;;;;1.41;99.03;95422.28;2072039;28;20202;-63
2022/02/21 03:47:46;;;;;;;2.92;0.80;;;;;;;1.47;98.79;95458.09;2072646;28;20212;-62
2022/02/21 03:48:48;;;;;;;13.55;1.10;;;;;;;1.33;98.73;95433.84;2070547;28;20228;-63
2022/02/21 03:49:50;;;;;;;3.25;0.63;;;;;;;1.21;98.73;95425.88;2070522;28;20233;-63
2022/02/21 03:50:51;;;;;;;1.88;0.68;;;;;;;1.23;98.84;95453.25;2072717;28;20291;-63
2022/02/21 03:51:53;;;;;;;1.52;0.70;;;;;;;1.15;98.94;95443.31;2072866;28;20215;-63
2022/02/21 03:52:55;;;;;;;3.40;1.33;;;;;;;1.04;99.29;95437.03;2071524;28;20240;-62
2022/02/21 03:53:56;;;;;;;1.90;0.65;;;;;;;1.07;99.98;95462.66;2071820;28;20209;-63
2022/02/21 03:54:58;;;;;;;2.42;0.70;;;;;;;1.03;99.67;95448.25;2072148;28;20225;-62
2022/02/21 03:56:00;;;;;;;12.00;1.10;;;;;;;0.95;100.00;95449.47;2072258;28;20205;-62
2022/02/21 03:57:01;;;;;;;4.25;1.08;;;;;;;0.85;99.58;95452.59;2064022;28;20195;-62
2022/02/21 03:58:03;;;;;;;3.00;0.65;;;;;;;0.91;99.72;95460.84;2071930;28;20202;-62
2022/02/21 03:59:05;;;;;;;3.47;0.70;;;;;;;0.86;99.76;95472.28;2072269;28;20263;-63
2022/02/21 04:00:10;;;;;;;5.43;1.00;;;;;;;0.85;100.00;95463.72;2071175;28;20648;-62
2022/02/21 04:01:11;;;;;;;3.58;0.80;;;;;;;0.85;100.00;95473.22;2071108;28;20240;-63
2022/02/21 04:02:13;;;;;;;2.95;0.80;;;;;;;0.86;99.90;95462.78;2072719;28;20240;-61
2022/02/21 04:03:14;;;;;;;3.38;0.80;;;;;;;0.88;99.45;95465.31;2072740;28;20221;-62
2022/02/21 04:04:16;;;;;;;4.72;0.68;;;;;;;0.87;99.48;95458.50;2069618;28;20197;-62
2022/02/21 04:05:17;;;;;;;1.40;1.13;;;;;;;0.89;100.00;95467.00;2076509;28;20197;-62
2022/02/21 04:06:19;;;;;;;3.35;0.60;;;;;;;0.79;99.64;95449.38;2074833;28;20202;-63
2022/02/21 04:07:20;;;;;;;3.28;0.65;;;;;;;0.87;97.68;95440.44;2071812;28;20210;-62
2022/02/21 04:08:22;;;;;;;6.28;0.85;;;;;;;0.50;98.18;95394.09;2072011;28;20710;-62
2022/02/21 04:09:23;;;;;;;1.33;0.60;;;;;;;0.85;97.23;95426.81;2071862;28;20232;-62
2022/02/21 04:10:25;;;;;;;3.10;0.80;;;;;;;0.93;95.86;95402.31;2071828;28;20208;-62
2022/02/21 04:11:26;;;;;;;2.90;0.70;;;;;;;0.97;94.57;95437.34;2072660;28;20201;-62
2022/02/21 04:12:28;;;;;;;6.72;1.02;;;;;;;0.90;95.09;95404.19;2075376;28;20700;-62
2022/02/21 04:13:29;;;;;;;2.00;0.65;;;;;;;0.97;93.66;95393.50;2076911;28;20695;-62
2022/02/21 04:14:31;;;;;;;0.98;0.60;;;;;;;1.06;91.94;95412.84;2072028;28;20228;-62
2022/02/21 04:15:33;;;;;;;1.23;0.80;;;;;;;1.12;91.62;95415.13;2072443;28;20205;-62
2022/02/21 04:16:34;;;;;;;2.63;0.93;;;;;;;1.01;91.32;95401.09;2071714;28;20202;-63
2022/02/21 04:17:45;;;;;;;6.10;0.80;;;;;;;1.20;89.48;95412.16;2069774;28;20198;-61
2022/02/21 04:18:46;;;;;;;7.30;0.75;;;;;;;1.09;91.15;95404.94;2071734;28;20201;-62
2022/02/21 04:19:48;;;;;;;3.63;0.77;;;;;;;1.21;90.77;95441.34;2070974;28;20291;-62
2022/02/21 04:20:49;;;;;;;2.15;0.85;;;;;;;1.26;89.51;95442.78;2075699;28;20293;-62
2022/02/21 04:21:51;;;;;;;2.88;0.73;;;;;;;1.33;88.20;95418.38;2075697;28;20239;-62
2022/02/21 04:22:54;;;;;;;5.40;1.10;;;;;;;1.25;90.81;95405.00;2072093;28;20202;-63
2022/02/21 04:23:56;;;;;;;12.38;1.13;;;;;;;1.21;90.42;95415.56;2071142;28;20213;-62
2022/02/21 04:24:57;;;;;;;7.90;1.10;;;;;;;1.27;87.89;95395.44;2072020;28;20743;-62
2022/02/21 04:25:59;;;;;;;3.67;1.38;;;;;;;1.24;nan;95415.41;2072649;28;20206;-62
2022/02/21 04:27:00;;;;;;;3.67;1.13;;;;;;;1.25;89.47;95415.31;2072430;28;20214;-62
2022/02/21 04:28:02;;;;;;;10.15;0.90;;;;;;;1.26;88.41;95383.47;2072113;28;20194;-61
2022/02/21 04:29:03;;;;;;;4.97;0.82;;;;;;;1.28;88.09;95394.53;2070861;28;20658;-62
2022/02/21 04:30:05;;;;;;;3.10;1.10;;;;;;;1.29;86.49;95360.06;2071572;28;20693;-62
2022/02/21 04:31:08;;;;;;;6.68;0.93;;;;;;;1.29;88.96;95372.97;2064664;28;20197;-61
2022/02/21 04:32:09;;;;;;;3.00;1.20;;;;;;;1.27;88.28;95349.00;2071870;28;20201;-61
2022/02/21 04:33:11;;;;;;;6.20;1.45;;;;;;;1.23;89.57;95329.44;2072526;28;20202;-62
2022/02/21 04:34:12;;;;;;;8.77;1.17;;;;;;;1.23;90.43;95355.25;2071704;28;20205;-62
2022/02/21 04:35:16;;;;;;;6.75;0.95;;;;;;;1.31;88.58;95360.84;2072371;28;20443;-62
2022/02/21 04:36:18;;;;;;;3.35;0.90;;;;;;;1.27;89.43;95325.78;2072451;28;20206;-62
2022/02/21 04:37:19;;;;;;;11.90;1.00;;;;;;;1.35;89.66;95325.38;2071391;28;20320;-61
2022/02/21 04:38:21;;;;;;;3.30;1.02;;;;;;;1.24;90.34;95325.97;2071384;28;20202;-61
2022/02/21 04:39:22;;;;;;;4.30;1.30;;;;;;;1.30;90.67;95333.38;2071932;28;20198;-62
2022/02/21 04:40:27;;;;;;;5.38;1.27;;;;;;;1.30;89.57;95341.13;2069208;28;20201;-62
2022/02/21 04:41:29;;;;;;;8.25;1.40;;;;;;;1.33;90.20;95343.56;2077896;28;20213;-62
2022/02/21 04:42:30;;;;;;;5.75;1.38;;;;;;;1.37;89.62;95350.22;2077853;28;20252;-62
2022/02/21 04:43:32;;;;;;;3.10;1.13;;;;;;;1.30;91.04;95341.13;2072315;28;20205;-62
2022/02/21 04:44:33;;;;;;;7.18;1.05;;;;;;;1.36;91.60;95351.13;2071268;28;20217;-62
2022/02/21 04:45:35;;;;;;;3.72;1.50;;;;;;;1.36;90.87;95351.13;2071742;28;20212;-61
2022/02/21 04:46:37;;;;;;;4.40;1.42;;;;;;;1.40;88.68;95345.81;2072089;28;20198;-62
2022/02/21 04:47:38;;;;;;;10.15;1.23;;;;;;;1.50;89.06;95352.97;2072278;28;20213;-62
2022/02/21 04:48:40;;;;;;;6.82;1.20;;;;;;;1.55;88.67;95352.75;2073997;28;20198;-62
2022/02/21 04:49:41;;;;;;;2.75;1.10;;;;;;;1.57;87.89;95354.31;2071392;28;20228;-62
2022/02/21 04:50:42;;;;;;;7.82;1.45;;;;;;;1.58;88.22;95362.88;2070216;28;20198;-62
2022/02/21 04:51:44;;;;;;;4.90;1.17;;;;;;;1.51;87.43;95341.75;2071613;28;20312;-62
2022/02/21 04:52:46;;;;;;;9.35;1.33;;;;;;;1.65;86.68;95361.66;2072332;28;20204;-62
2022/02/21 04:53:47;;;;;;;4.80;1.13;;;;;;;1.63;87.43;95372.97;2069785;28;20650;-62
2022/02/21 04:54:49;;;;;;;11.75;1.90;;;;;;;1.44;87.25;95339.56;2070342;28;20227;-62
2022/02/21 04:55:50;;;;;;;7.53;1.75;;;;;;;1.65;86.83;95384.06;2071803;28;20202;-62